Time;durP1;ratioP1;P1;durP2;ratioP2;P2;SDS_P1;SDS_P2;PMS_P1;PMS_P2;Temp;Humidity;BMP_temperature;BMP_pressure;BME280_temperature;BME280_humidity;BME280_pressure;Samples;Min_cycle;Max_cycle;Signal;HPM_P1;HPM_P2
2022/03/13 00:02:16;;;;;;;21.70;14.70;;;;;;;0.32;78.85;102699.13;5112520;28;20262;-68
2022/03/13 00:04:49;;;;;;;23.03;15.53;;;;;;;0.02;78.67;102654.66;5112324;28;20257;-68
2022/03/13 00:07:25;;;;;;;21.63;14.40;;;;;;;0.32;79.12;102699.13;5113798;28;20276;-67
2022/03/13 00:09:51;;;;;;;27.33;15.77;;;;;;;0.32;78.98;102683.41;5113498;28;20249;-68
2022/03/13 00:12:29;;;;;;;23.50;14.70;;;;;;;0.28;78.30;102680.84;5113077;28;20301;-67
2022/03/13 00:14:56;;;;;;;22.67;14.23;;;;;;;0.32;78.42;102672.91;5113580;28;20364;-67
2022/03/13 00:17:27;;;;;;;22.33;15.13;;;;;;;0.31;78.22;102672.06;5113173;28;20258;-67
2022/03/13 00:19:55;;;;;;;21.27;14.33;;;;;;;0.35;78.06;102668.44;5113477;28;20360;-66
2022/03/13 00:22:21;;;;;;;18.70;13.00;;;;;;;0.32;78.29;102667.69;5113060;28;20261;-66
2022/03/13 00:24:46;;;;;;;20.03;14.80;;;;;;;0.44;78.32;102696.09;5113027;28;20092;-69
2022/03/13 00:27:12;;;;;;;19.67;14.43;;;;;;;0.28;78.14;102678.22;5113220;28;20035;-68
2022/03/13 00:29:39;;;;;;;23.57;14.93;;;;;;;0.39;78.40;102696.25;5113023;28;20527;-69
2022/03/13 00:32:05;;;;;;;19.43;13.47;;;;;;;0.41;77.96;102696.19;5111671;28;20459;-68
2022/03/13 00:34:31;;;;;;;21.30;14.37;;;;;;;0.42;77.95;102695.28;5113223;28;20272;-68
2022/03/13 00:36:56;;;;;;;21.23;15.63;;;;;;;0.24;78.54;102670.53;5113042;28;20030;-68
2022/03/13 00:39:22;;;;;;;21.10;13.73;;;;;;;0.41;78.20;102694.44;5112599;28;20077;-67
2022/03/13 00:41:47;;;;;;;20.40;14.07;;;;;;;0.44;78.11;102689.09;5112406;28;20455;-67
2022/03/13 00:44:13;;;;;;;17.13;13.73;;;;;;;0.30;78.17;102665.97;5112845;28;20359;-67
2022/03/13 00:46:39;;;;;;;21.07;14.17;;;;;;;0.51;78.02;102689.72;5112667;28;20035;-67
2022/03/13 00:49:04;;;;;;;24.03;14.13;;;;;;;0.44;77.93;102672.50;5112957;28;20024;-68
2022/03/13 00:51:30;;;;;;;20.00;13.87;;;;;;;0.48;78.17;102679.34;5112638;28;20023;-67
2022/03/13 00:53:56;;;;;;;19.90;12.87;;;;;;;0.49;78.47;102683.69;5112789;28;20024;-71
2022/03/13 00:56:21;;;;;;;18.60;13.17;;;;;;;0.46;78.22;102671.53;5113033;28;20035;-66
2022/03/13 00:58:47;;;;;;;18.87;13.70;;;;;;;0.51;77.74;102682.72;5112757;28;20032;-66
2022/03/13 01:01:12;;;;;;;18.90;13.10;;;;;;;0.46;78.37;102675.94;5112630;28;20031;-68
2022/03/13 01:03:38;;;;;;;18.83;13.43;;;;;;;0.48;78.27;102684.59;5112902;28;20088;-68
2022/03/13 01:06:05;;;;;;;16.87;13.37;;;;;;;0.39;78.05;102664.78;5112633;28;20027;-68
2022/03/13 01:08:30;;;;;;;21.33;14.40;;;;;;;0.35;78.13;102651.84;5112977;28;20059;-68
2022/03/13 01:10:57;;;;;;;18.00;13.10;;;;;;;0.50;77.97;102686.25;5112615;28;20751;-68
2022/03/13 01:13:23;;;;;;;18.73;13.43;;;;;;;0.56;78.31;102693.06;5112688;28;20438;-66
2022/03/13 01:15:49;;;;;;;16.20;13.60;;;;;;;0.42;77.69;102663.84;5112565;28;20299;-66
2022/03/13 01:18:16;;;;;;;17.27;13.47;;;;;;;0.46;77.89;102663.69;5112340;28;20026;-67
2022/03/13 01:20:45;;;;;;;20.30;14.70;;;;;;;0.62;77.91;102682.38;5110805;28;20750;-67
2022/03/13 01:23:15;;;;;;;18.70;13.63;;;;;;;0.61;78.02;102681.53;5112273;28;20254;-70
2022/03/13 01:25:40;;;;;;;21.03;14.50;;;;;;;0.62;78.25;102687.63;5113058;28;20258;-68
2022/03/13 01:28:06;;;;;;;20.63;14.13;;;;;;;0.64;77.49;102680.56;5113994;28;20808;-69
2022/03/13 01:30:32;;;;;;;28.87;15.83;;;;;;;0.64;77.76;102680.56;5114494;28;20032;-70
2022/03/13 01:32:57;;;;;;;22.43;15.90;;;;;;;0.61;78.14;102676.28;5112499;28;20076;-69
2022/03/13 01:35:24;;;;;;;21.27;15.53;;;;;;;0.49;77.69;102649.59;5114264;28;20488;-69
2022/03/13 01:37:51;;;;;;;23.73;15.87;;;;;;;0.59;78.21;102669.38;5111673;28;20498;-70
2022/03/13 01:40:21;;;;;;;20.40;16.43;;;;;;;0.48;78.18;102655.75;5112417;28;20264;-67
2022/03/13 01:42:48;;;;;;;18.83;14.37;;;;;;;0.61;78.13;102675.44;5112172;28;20848;-70
2022/03/13 01:45:17;;;;;;;21.57;15.97;;;;;;;0.49;78.17;102652.22;5112154;28;20306;-68
2022/03/13 01:47:44;;;;;;;20.60;14.67;;;;;;;0.53;77.66;102651.22;5112569;28;20292;-68
2022/03/13 01:50:11;;;;;;;20.43;15.17;;;;;;;0.50;77.64;102661.81;5111676;28;20178;-69
2022/03/13 01:52:40;;;;;;;23.90;15.20;;;;;;;0.64;77.24;102675.31;5113012;28;20731;-68
2022/03/13 01:55:07;;;;;;;23.10;17.05;;;;;;;0.59;77.42;102667.63;5116163;28;20258;-69
2022/03/13 01:57:32;;;;;;;26.37;16.70;;;;;;;0.67;77.94;102680.47;5116041;28;20028;-68
2022/03/13 02:00:00;;;;;;;20.77;14.53;;;;;;;0.72;77.89;102670.66;5115922;28;20257;-71
2022/03/13 02:02:28;;;;;;;22.27;14.27;;;;;;;0.70;77.76;102671.63;5114684;28;20023;-68
2022/03/13 02:04:56;;;;;;;20.52;13.68;;;;;;;0.40;77.61;102616.72;5116794;28;20268;-67
2022/03/13 02:07:23;;;;;;;21.63;14.93;;;;;;;0.56;77.50;102645.88;5117303;28;20036;-68
2022/03/13 02:09:50;;;;;;;20.50;15.13;;;;;;;0.62;77.92;102656.16;5116767;27;20314;-66
2022/03/13 02:12:19;;;;;;;18.70;14.37;;;;;;;0.59;77.78;102659.75;5116741;28;20674;-69
2022/03/13 02:14:45;;;;;;;22.77;13.57;;;;;;;0.54;77.59;102653.78;5116610;27;20285;-69
2022/03/13 02:17:10;;;;;;;20.67;15.00;;;;;;;0.59;77.97;102656.28;5115839;27;20651;-67
2022/03/13 02:19:36;;;;;;;19.47;13.87;;;;;;;0.65;77.93;102669.16;5117180;28;20435;-66
2022/03/13 02:22:02;;;;;;;21.50;13.50;;;;;;;0.52;77.56;102634.63;5117107;28;20118;-66
2022/03/13 02:24:28;;;;;;;19.53;14.90;;;;;;;0.61;77.46;102660.56;5117126;28;20064;-67
2022/03/13 02:27:00;;;;;;;21.03;14.37;;;;;;;0.59;77.86;102658.91;5115549;28;20024;-67
2022/03/13 02:29:27;;;;;;;20.67;14.93;;;;;;;0.50;78.39;102651.31;5115133;28;20257;-66
2022/03/13 02:31:53;;;;;;;18.87;13.63;;;;;;;0.25;78.20;102623.31;5115018;28;20284;-69
2022/03/13 02:34:19;;;;;;;19.83;14.23;;;;;;;0.39;78.09;102648.22;5114021;28;20253;-69
2022/03/13 02:36:58;;;;;;;18.30;14.13;;;;;;;0.45;78.11;102663.72;5115175;28;20272;-67
2022/03/13 02:39:24;;;;;;;18.77;14.40;;;;;;;0.39;78.49;102656.94;5115918;28;20256;-69
2022/03/13 02:41:49;;;;;;;19.40;13.17;;;;;;;0.32;78.70;102652.81;5118278;28;20032;-68
2022/03/13 02:44:19;;;;;;;21.77;14.23;;;;;;;0.22;78.39;102626.03;5117523;28;20299;-67
2022/03/13 02:46:48;;;;;;;19.93;12.10;;;;;;;0.36;78.45;102658.81;5117462;27;20077;-70
2022/03/13 02:49:15;;;;;;;19.77;13.60;;;;;;;0.27;78.34;102636.34;5115541;28;20756;-68
2022/03/13 02:51:41;;;;;;;21.40;13.77;;;;;;;0.32;78.72;102638.84;5114923;28;20042;-66
2022/03/13 02:54:08;;;;;;;18.67;12.47;;;;;;;0.36;78.25;102640.47;5114805;28;20258;-69
2022/03/13 02:56:33;;;;;;;22.30;15.87;;;;;;;0.22;78.71;102620.78;5114888;28;20269;-69
2022/03/13 02:59:24;;;;;;;17.47;13.23;;;;;;;0.37;78.01;102635.16;5115254;28;20268;-67
2022/03/13 03:01:50;;;;;;;21.17;13.43;;;;;;;0.38;78.32;102622.91;5114992;28;20265;-69
2022/03/13 03:04:16;;;;;;;21.93;13.37;;;;;;;0.35;77.57;102633.50;5114377;28;20027;-66
2022/03/13 03:06:51;;;;;;;17.80;13.20;;;;;;;0.39;78.48;102642.97;5114652;27;20026;-71
2022/03/13 03:09:17;;;;;;;18.80;13.50;;;;;;;0.25;77.79;102625.06;5114877;28;20408;-68
2022/03/13 03:11:43;;;;;;;22.53;13.47;;;;;;;0.35;77.87;102652.72;5114889;28;20300;-68
2022/03/13 03:14:10;;;;;;;18.27;12.47;;;;;;;0.20;77.50;102625.22;5114582;28;20280;-67
2022/03/13 03:16:36;;;;;;;15.77;12.17;;;;;;;0.33;77.46;102653.66;5095257;27;20267;-65
2022/03/13 03:19:02;;;;;;;17.47;12.53;;;;;;;0.32;77.68;102657.19;5107224;28;20350;-67
2022/03/13 03:21:27;;;;;;;16.13;12.73;;;;;;;0.17;77.62;102638.44;5110928;28;20424;-68
2022/03/13 03:23:53;;;;;;;19.40;12.87;;;;;;;0.01;78.00;102636.38;5093794;28;20021;-68
2022/03/13 03:26:19;;;;;;;19.03;12.30;;;;;;;-0.21;78.38;102610.84;5092935;28;20028;-68
2022/03/13 03:28:45;;;;;;;19.23;13.50;;;;;;;0.12;78.20;102666.56;5094042;28;20051;-67
2022/03/13 03:31:10;;;;;;;18.37;14.20;;;;;;;0.05;78.89;102644.09;5093701;28;20074;-67
2022/03/13 03:33:36;;;;;;;18.77;14.73;;;;;;;0.13;78.83;102659.53;5093779;28;20042;-67
2022/03/13 03:36:01;;;;;;;18.93;14.80;;;;;;;0.06;78.48;102648.41;5093630;28;20073;-65
2022/03/13 03:38:27;;;;;;;17.37;13.77;;;;;;;0.02;78.68;102646.81;5093584;28;20581;-67
2022/03/13 03:40:52;;;;;;;19.30;12.97;;;;;;;-0.31;78.63;102605.03;5093834;28;20028;-67
2022/03/13 03:43:18;;;;;;;19.57;13.13;;;;;;;-0.08;78.65;102648.84;5093529;28;20016;-67
2022/03/13 03:45:43;;;;;;;17.97;15.37;;;;;;;-0.20;78.78;102641.38;5093534;28;20016;-68
2022/03/13 03:48:09;;;;;;;17.80;12.67;;;;;;;-0.35;78.87;102621.75;5092226;28;20020;-65
2022/03/13 03:50:35;;;;;;;20.17;13.77;;;;;;;-0.20;79.12;102657.09;5093052;28;20114;-68
2022/03/13 03:53:01;;;;;;;19.63;13.07;;;;;;;-0.41;79.05;102629.78;5093159;28;20046;-68
2022/03/13 03:55:27;;;;;;;16.97;12.60;;;;;;;-0.29;79.45;102657.34;5093393;28;20043;-66
2022/03/13 03:57:53;;;;;;;16.87;11.03;;;;;;;-0.42;79.03;102638.53;5093406;28;20395;-67
2022/03/13 04:00:23;;;;;;;14.27;11.40;;;;;;;-0.45;79.22;102649.13;5092915;28;20296;-67
2022/03/13 04:02:49;;;;;;;19.77;11.83;;;;;;;-0.52;79.57;102641.50;5093543;28;20262;-68
2022/03/13 04:05:14;;;;;;;19.63;13.33;;;;;;;-0.47;79.71;102656.16;5093080;28;20110;-67
2022/03/13 04:07:40;;;;;;;17.83;13.80;;;;;;;-0.65;80.21;102630.50;5093160;28;20376;-68
2022/03/13 04:10:09;;;;;;;16.53;12.40;;;;;;;-0.52;79.62;102652.81;5092829;28;20080;-67
2022/03/13 04:12:34;;;;;;;22.13;14.32;;;;;;;-0.53;80.14;102645.88;5098592;28;20043;-67
2022/03/13 04:15:03;;;;;;;19.23;13.77;;;;;;;-0.69;80.17;102626.28;5105159;28;20467;-67
2022/03/13 04:17:30;;;;;;;20.07;14.17;;;;;;;-0.59;80.03;102650.41;5113136;28;20019;-69
2022/03/13 04:19:55;;;;;;;17.63;14.67;;;;;;;-0.64;79.72;102645.31;5113126;28;20273;-67
2022/03/13 04:22:21;;;;;;;18.90;14.43;;;;;;;-0.72;80.04;102629.00;5113203;28;20254;-66
2022/03/13 04:24:46;;;;;;;21.63;14.13;;;;;;;-0.61;80.47;102650.47;5111927;28;20363;-67
2022/03/13 04:27:13;;;;;;;19.13;14.67;;;;;;;-0.67;80.45;102642.78;5113178;28;20046;-66
2022/03/13 04:29:40;;;;;;;21.80;14.70;;;;;;;-0.61;80.70;102650.47;5113093;28;20031;-67
2022/03/13 04:32:08;;;;;;;29.77;16.20;;;;;;;-0.76;80.01;102633.47;5112856;28;20637;-68
2022/03/13 04:34:33;;;;;;;23.37;16.27;;;;;;;-0.69;80.46;102644.59;5112958;28;20627;-68
2022/03/13 04:37:00;;;;;;;22.30;15.93;;;;;;;-0.60;80.62;102656.53;5112863;28;20257;-69
2022/03/13 04:39:35;;;;;;;18.37;15.00;;;;;;;-0.58;80.53;102655.59;5111755;28;20019;-69
2022/03/13 04:42:04;;;;;;;21.83;16.20;;;;;;;-0.60;80.09;102654.78;5112750;28;20263;-67
2022/03/13 04:44:30;;;;;;;21.03;14.47;;;;;;;-0.73;79.52;102627.28;5112793;28;20281;-66
2022/03/13 04:46:55;;;;;;;20.90;14.60;;;;;;;-0.81;79.72;102613.56;5112978;28;20288;-66
2022/03/13 04:49:21;;;;;;;22.37;15.57;;;;;;;-0.58;79.45;102642.50;5113049;28;20034;-69
2022/03/13 04:51:46;;;;;;;18.27;14.87;;;;;;;-0.60;79.50;102644.31;5077981;28;20036;-67
2022/03/13 04:54:12;;;;;;;20.03;14.67;;;;;;;-0.53;79.69;102656.34;5113844;28;20019;-68
2022/03/13 04:56:38;;;;;;;20.67;14.93;;;;;;;-0.66;79.55;102631.41;5113306;28;20028;-68
2022/03/13 04:59:06;;;;;;;23.43;15.20;;;;;;;-0.53;79.67;102645.88;5112947;28;20037;-67
2022/03/13 05:01:32;;;;;;;21.73;15.80;;;;;;;-0.53;79.44;102656.34;5115268;28;20467;-68
2022/03/13 05:03:57;;;;;;;20.50;14.67;;;;;;;-0.51;79.79;102653.69;5120773;28;20027;-67
2022/03/13 05:06:23;;;;;;;17.70;14.13;;;;;;;-0.70;79.68;102617.56;5114873;28;20027;-67
2022/03/13 05:08:49;;;;;;;19.50;13.60;;;;;;;-0.49;79.58;102651.88;5113711;28;20024;-67
2022/03/13 05:11:17;;;;;;;17.97;12.97;;;;;;;-0.52;78.99;102646.72;5113533;28;20083;-70
2022/03/13 05:13:42;;;;;;;16.33;12.30;;;;;;;-0.50;79.13;102647.53;5111997;28;20035;-69
2022/03/13 05:16:08;;;;;;;22.77;13.83;;;;;;;-0.52;79.37;102650.22;5112122;28;20264;-67
2022/03/13 05:18:34;;;;;;;18.37;13.67;;;;;;;-0.49;79.12;102665.81;5112764;28;20028;-73
2022/03/13 05:21:00;;;;;;;19.17;13.70;;;;;;;-0.54;79.17;102649.41;5112777;28;20115;-68
2022/03/13 05:23:26;;;;;;;22.57;14.47;;;;;;;-0.44;78.89;102663.91;5112532;28;20265;-67
2022/03/13 05:25:52;;;;;;;17.27;12.63;;;;;;;-0.40;78.61;102655.06;5112496;28;20574;-69
2022/03/13 05:28:17;;;;;;;18.50;14.20;;;;;;;-0.35;78.64;102661.00;5115848;28;20363;-65
2022/03/13 05:30:43;;;;;;;18.80;13.80;;;;;;;-0.49;78.55;102631.78;5112117;28;20058;-65
2022/03/13 05:33:08;;;;;;;18.27;13.27;;;;;;;-0.71;78.50;102581.84;5097836;28;20035;-63
2022/03/13 05:35:34;;;;;;;17.87;12.53;;;;;;;-0.32;77.78;102645.22;5116733;28;20019;-65
2022/03/13 05:38:00;;;;;;;20.77;14.03;;;;;;;-0.31;77.73;102639.06;5116827;27;20016;-65
2022/03/13 05:40:27;;;;;;;18.67;13.33;;;;;;;-0.33;77.71;102625.16;5105989;28;20327;-67
2022/03/13 05:42:59;;;;;;;22.60;12.97;;;;;;;-0.14;77.20;102656.03;5101596;28;20058;-65
2022/03/13 05:45:29;;;;;;;16.87;12.37;;;;;;;-0.23;77.34;102638.00;5103687;28;20274;-66
2022/03/13 05:48:05;;;;;;;23.03;13.47;;;;;;;-0.14;77.43;102654.28;5102612;28;20262;-69
2022/03/13 05:50:31;;;;;;;18.27;13.13;;;;;;;-0.11;77.02;102656.78;5100691;28;20339;-66
2022/03/13 05:52:57;;;;;;;18.30;12.47;;;;;;;-0.07;76.74;102655.78;5099445;28;20284;-68
2022/03/13 05:55:26;;;;;;;19.17;13.70;;;;;;;-0.05;76.99;102655.72;5095892;28;20430;-69
2022/03/13 05:57:53;;;;;;;18.37;12.87;;;;;;;-0.17;77.14;102637.81;5095307;28;20027;-67
2022/03/13 06:00:21;;;;;;;22.83;12.67;;;;;;;-0.12;77.07;102638.50;5095789;28;20760;-71
2022/03/13 06:02:47;;;;;;;20.75;13.27;;;;;;;-0.04;76.54;102650.44;5096245;28;20335;-73
2022/03/13 06:05:15;;;;;;;17.37;12.87;;;;;;;-0.27;76.80;102599.72;5095922;28;20467;-72
2022/03/13 06:07:41;;;;;;;21.20;11.68;;;;;;;-0.03;76.00;102635.59;5095524;28;20020;-71
2022/03/13 06:10:08;;;;;;;19.83;12.77;;;;;;;-0.26;75.98;102596.19;5095737;28;20524;-69
2022/03/13 06:12:36;;;;;;;19.57;13.67;;;;;;;0.01;75.82;102642.47;5095063;28;20098;-70
2022/03/13 06:15:03;;;;;;;19.77;12.53;;;;;;;0.02;76.04;102638.94;5095645;28;20729;-70
2022/03/13 06:17:29;;;;;;;17.43;12.57;;;;;;;0.15;76.14;102658.59;5095012;28;20258;-71
2022/03/13 06:19:58;;;;;;;17.33;12.13;;;;;;;0.09;75.93;102640.44;5094023;28;20271;-71
2022/03/13 06:22:24;;;;;;;16.50;12.27;;;;;;;0.14;75.11;102646.41;5094881;28;20035;-70
2022/03/13 06:24:51;;;;;;;19.70;12.00;;;;;;;0.25;75.25;102656.50;5094889;28;20421;-70
2022/03/13 06:27:17;;;;;;;18.20;12.70;;;;;;;0.20;75.46;102640.94;5094384;28;20646;-68
2022/03/13 06:29:43;;;;;;;19.60;13.20;;;;;;;0.35;75.09;102654.47;5113571;27;20280;-68
2022/03/13 06:32:09;;;;;;;16.73;12.63;;;;;;;0.45;74.75;102668.97;5108800;28;20281;-69
2022/03/13 06:34:35;;;;;;;19.50;12.97;;;;;;;0.39;75.00;102658.69;5110071;28;20144;-66
2022/03/13 06:37:00;;;;;;;18.10;11.90;;;;;;;0.56;74.46;102666.84;5113468;28;20027;-69
2022/03/13 06:39:26;;;;;;;17.57;12.80;;;;;;;0.51;73.83;102676.63;5115212;28;20027;-65
2022/03/13 06:41:52;;;;;;;15.73;12.20;;;;;;;0.48;74.23;102658.38;5112853;28;20352;-69
2022/03/13 06:44:18;;;;;;;17.27;11.87;;;;;;;0.61;74.04;102680.69;5116925;28;20034;-72
2022/03/13 06:46:47;;;;;;;18.10;11.97;;;;;;;0.34;73.55;102630.03;5113092;28;20035;-69
2022/03/13 06:49:12;;;;;;;23.85;12.82;;;;;;;0.71;73.00;102682.06;5114370;28;20318;-67
2022/03/13 06:51:38;;;;;;;19.17;12.27;;;;;;;0.71;72.94;102666.34;5112755;28;20470;-67
2022/03/13 06:54:06;;;;;;;17.57;11.23;;;;;;;0.71;72.72;102655.84;5105406;28;20074;-66
2022/03/13 06:56:32;;;;;;;20.90;11.93;;;;;;;0.52;72.82;102616.28;5114772;28;20023;-69
2022/03/13 06:59:03;;;;;;;24.53;13.50;;;;;;;0.88;72.48;102677.09;5105171;28;20655;-65
2022/03/13 07:01:33;;;;;;;19.23;13.03;;;;;;;1.01;72.80;102679.28;5112430;28;20635;-63
2022/03/13 07:03:59;;;;;;;21.50;11.47;;;;;;;0.93;72.08;102650.72;5109613;28;20766;-66
2022/03/13 07:06:24;;;;;;;18.13;13.83;;;;;;;0.42;71.65;102569.47;5114216;28;20253;-66
2022/03/13 07:08:50;;;;;;;17.63;14.07;;;;;;;0.93;71.65;102656.81;5112065;28;20027;-62
2022/03/13 07:11:16;;;;;;;20.13;12.17;;;;;;;1.04;71.78;102664.28;5111737;28;20044;-65
2022/03/13 07:13:45;;;;;;;17.67;11.80;;;;;;;1.16;71.74;102678.75;5113885;28;20386;-64
2022/03/13 07:16:14;;;;;;;14.53;10.77;;;;;;;1.23;71.45;102667.13;5109421;28;20298;-63
2022/03/13 07:18:39;;;;;;;18.02;12.73;;;;;;;1.19;71.17;102669.00;5111442;28;20036;-64
2022/03/13 07:21:05;;;;;;;14.57;10.47;;;;;;;1.09;71.01;102645.75;5113677;28;20028;-64
2022/03/13 07:23:31;;;;;;;16.57;11.50;;;;;;;1.24;71.30;102671.44;5113567;28;20024;-67
2022/03/13 07:25:56;;;;;;;16.00;11.77;;;;;;;1.21;70.91;102653.19;5113458;28;20068;-67
2022/03/13 07:28:22;;;;;;;15.97;10.50;;;;;;;1.21;71.21;102671.56;5113874;28;20031;-66
2022/03/13 07:30:47;;;;;;;16.27;12.20;;;;;;;1.09;71.16;102654.47;5110666;28;20118;-79
2022/03/13 07:33:13;;;;;;;17.43;10.77;;;;;;;1.25;71.43;102665.28;5092910;28;20035;-69
2022/03/13 07:35:39;;;;;;;17.03;10.67;;;;;;;1.37;70.66;102672.69;5113928;28;20024;-69
2022/03/13 07:38:05;;;;;;;17.90;10.80;;;;;;;1.39;71.11;102655.13;5113063;28;20454;-69
2022/03/13 07:40:31;;;;;;;15.20;10.73;;;;;;;1.40;70.48;102646.31;5113813;28;20028;-61
2022/03/13 07:42:57;;;;;;;15.73;9.57;;;;;;;1.48;69.95;102653.94;5105974;28;20660;-61
2022/03/13 07:45:24;;;;;;;19.40;11.23;;;;;;;1.57;70.32;102657.97;5109497;28;20735;-62
2022/03/13 07:47:50;;;;;;;16.17;10.30;;;;;;;1.35;69.70;102611.53;5093537;28;20415;-62
2022/03/13 07:50:16;;;;;;;15.63;11.90;;;;;;;1.62;69.72;102661.28;5092130;28;20269;-64
2022/03/13 07:52:42;;;;;;;14.30;9.43;;;;;;;1.78;69.57;102667.66;5093328;28;20258;-62
2022/03/13 07:55:08;;;;;;;28.13;11.13;;;;;;;1.77;69.34;102669.44;5093379;28;20470;-61
2022/03/13 07:57:33;;;;;;;20.20;11.20;;;;;;;1.86;69.43;102668.22;5091948;28;20024;-60
2022/03/13 07:59:59;;;;;;;17.03;10.43;;;;;;;1.94;69.37;102666.13;5092640;28;20277;-58
2022/03/13 08:02:24;;;;;;;13.30;9.57;;;;;;;2.05;68.72;102682.34;5093079;28;20298;-60
2022/03/13 08:04:50;;;;;;;18.67;11.07;;;;;;;2.08;68.78;102676.97;5092922;28;20512;-61
2022/03/13 08:07:16;;;;;;;18.37;9.50;;;;;;;2.16;68.52;102677.50;5093144;28;20035;-60
2022/03/13 08:09:41;;;;;;;19.23;11.00;;;;;;;2.18;68.39;102659.91;5093489;28;20067;-59
2022/03/13 08:12:09;;;;;;;19.13;10.20;;;;;;;2.39;68.32;102675.72;5093106;28;20047;-60
2022/03/13 08:14:34;;;;;;;23.50;9.83;;;;;;;2.44;67.45;102674.59;5093072;28;20032;-61
2022/03/13 08:17:00;;;;;;;20.13;10.00;;;;;;;2.53;67.65;102678.63;5092669;28;20261;-62
2022/03/13 08:19:25;;;;;;;23.30;11.27;;;;;;;1.96;67.13;102567.06;5092199;28;20412;-59
2022/03/13 08:21:51;;;;;;;18.87;10.80;;;;;;;2.64;67.21;102673.78;5092293;28;20032;-60
2022/03/13 08:24:17;;;;;;;16.43;9.37;;;;;;;2.51;66.75;102654.16;5103248;28;20158;-59
2022/03/13 08:26:43;;;;;;;20.40;9.97;;;;;;;2.59;67.46;102646.78;5092754;28;20028;-60
2022/03/13 08:29:10;;;;;;;16.10;9.70;;;;;;;2.67;66.41;102652.59;5092639;28;20247;-61
2022/03/13 08:31:37;;;;;;;15.20;9.90;;;;;;;2.78;66.41;102666.16;5092712;28;20035;-60
2022/03/13 08:34:08;;;;;;;24.50;11.43;;;;;;;2.80;66.58;102666.06;5092630;28;20269;-61
2022/03/13 08:36:39;;;;;;;14.63;9.60;;;;;;;2.80;66.56;102640.63;5092686;28;20392;-61
2022/03/13 08:39:05;;;;;;;20.63;10.43;;;;;;;2.98;66.05;102664.44;5092655;28;20677;-61
2022/03/13 08:41:31;;;;;;;20.57;10.00;;;;;;;3.03;66.00;102651.91;5092554;28;20261;-59
2022/03/13 08:43:56;;;;;;;18.23;10.23;;;;;;;3.17;65.70;102660.03;5092729;28;20024;-62
2022/03/13 08:46:22;;;;;;;14.60;9.80;;;;;;;3.10;65.21;102634.91;5107921;28;20122;-60
2022/03/13 08:48:49;;;;;;;19.23;9.73;;;;;;;3.27;64.99;102657.88;5093195;28;20036;-59
2022/03/13 08:51:15;;;;;;;23.20;10.47;;;;;;;3.33;65.80;102666.34;5093497;28;20780;-59
2022/03/13 08:53:41;;;;;;;17.63;10.17;;;;;;;3.37;65.09;102662.66;5113048;28;20743;-60
2022/03/13 08:56:08;;;;;;;15.60;9.90;;;;;;;3.40;64.30;102662.50;5112883;28;20748;-60
2022/03/13 08:58:33;;;;;;;22.87;9.80;;;;;;;3.41;64.60;102672.13;5112529;28;20281;-63
2022/03/13 09:01:00;;;;;;;15.90;9.60;;;;;;;3.37;64.33;102651.25;5112606;28;20308;-62
2022/03/13 09:03:28;;;;;;;15.93;10.20;;;;;;;3.40;64.08;102651.13;5110308;28;20032;-61
2022/03/13 09:05:56;;;;;;;16.93;9.13;;;;;;;3.46;64.67;102656.09;5099924;28;20269;-60
2022/03/13 09:08:21;;;;;;;20.27;10.60;;;;;;;3.53;64.49;102667.22;5112521;28;20252;-61
2022/03/13 09:10:51;;;;;;;21.63;9.40;;;;;;;3.48;64.47;102645.50;5112620;28;20702;-60
2022/03/13 09:13:20;;;;;;;17.20;9.40;;;;;;;3.57;64.58;102663.53;5113343;28;20035;-61
2022/03/13 09:15:47;;;;;;;18.33;10.80;;;;;;;3.58;64.24;102642.38;5112726;28;20359;-60
2022/03/13 09:18:13;;;;;;;19.20;9.67;;;;;;;3.71;64.07;102651.41;5113527;28;20267;-60
2022/03/13 09:20:39;;;;;;;16.23;9.13;;;;;;;3.72;63.88;102641.72;5113331;28;20285;-60
2022/03/13 09:23:06;;;;;;;18.10;9.63;;;;;;;3.78;63.94;102653.75;5113201;28;20289;-60
2022/03/13 09:25:32;;;;;;;15.20;8.60;;;;;;;3.76;63.01;102650.31;5112376;28;20032;-60
2022/03/13 09:27:58;;;;;;;17.27;9.50;;;;;;;3.85;63.59;102658.66;5112300;28;20608;-62
2022/03/13 09:30:24;;;;;;;15.37;9.63;;;;;;;3.93;63.11;102651.25;5112132;28;20431;-62
2022/03/13 09:32:50;;;;;;;18.37;9.47;;;;;;;4.00;63.29;102642.09;5112313;28;20322;-60
2022/03/13 09:35:16;;;;;;;19.53;8.93;;;;;;;4.12;62.66;102645.94;5112181;28;20249;-61
2022/03/13 09:37:42;;;;;;;16.70;11.87;;;;;;;4.21;62.35;102649.91;5112157;28;20055;-61
2022/03/13 09:40:09;;;;;;;13.27;9.27;;;;;;;4.36;62.44;102654.44;5112217;28;20028;-60
2022/03/13 09:42:36;;;;;;;16.30;9.30;;;;;;;4.43;61.45;102647.91;5112175;28;20077;-60
2022/03/13 09:45:02;;;;;;;19.87;10.60;;;;;;;4.44;61.34;102649.63;5112080;28;20264;-59
2022/03/13 09:47:29;;;;;;;16.37;9.40;;;;;;;4.46;61.66;102654.81;5112192;28;20261;-61
2022/03/13 09:49:54;;;;;;;16.27;10.43;;;;;;;4.43;62.29;102654.97;5111361;28;20265;-61
2022/03/13 09:52:20;;;;;;;15.77;9.77;;;;;;;4.39;61.65;102659.56;5099000;28;20043;-61
2022/03/13 09:54:45;;;;;;;16.60;9.77;;;;;;;4.44;62.00;102657.53;5096464;28;20097;-61
2022/03/13 09:57:11;;;;;;;15.17;9.53;;;;;;;4.52;61.83;102655.34;5112394;28;20111;-61
2022/03/13 09:59:37;;;;;;;16.00;9.70;;;;;;;4.56;61.78;102656.03;5112492;28;20027;-59
2022/03/13 10:02:07;;;;;;;16.47;8.67;;;;;;;4.55;61.23;102647.28;5112072;28;20106;-60
2022/03/13 10:04:33;;;;;;;16.03;9.30;;;;;;;4.63;61.09;102653.03;5092902;28;20439;-60
2022/03/13 10:07:02;;;;;;;17.53;8.83;;;;;;;4.33;61.33;102591.25;5091514;28;20269;-60
2022/03/13 10:09:29;;;;;;;17.07;8.70;;;;;;;4.73;60.91;102663.97;5091238;28;20320;-60
2022/03/13 10:12:12;;;;;;;16.50;9.00;;;;;;;4.73;61.09;102648.13;5091618;28;20741;-60
2022/03/13 10:14:59;;;;;;;17.93;11.10;;;;;;;4.68;60.59;102662.50;5093459;28;20621;-60
2022/03/13 10:17:30;;;;;;;12.97;8.57;;;;;;;4.70;61.26;102668.56;5103480;28;20265;-60
2022/03/13 10:20:30;;;;;;;15.97;10.67;;;;;;;4.77;61.54;102670.81;5115774;28;20249;-62
2022/03/13 10:23:01;;;;;;;15.37;9.53;;;;;;;4.72;61.09;102670.19;5114913;27;20269;-63
2022/03/13 10:25:32;;;;;;;17.57;9.20;;;;;;;4.75;61.57;102671.81;5115126;28;20301;-62
2022/03/13 10:28:13;;;;;;;17.37;10.40;;;;;;;4.77;61.07;102672.59;5115674;28;20252;-61
2022/03/13 10:30:40;;;;;;;18.60;9.80;;;;;;;4.80;61.20;102669.78;5115326;28;20254;-60
2022/03/13 10:33:08;;;;;;;18.17;9.87;;;;;;;4.86;61.00;102662.41;5115239;28;20650;-60
2022/03/13 10:35:37;;;;;;;18.23;9.40;;;;;;;4.99;61.31;102675.84;5115462;28;20261;-60
2022/03/13 10:38:29;;;;;;;13.77;8.83;;;;;;;5.07;61.09;102668.34;5115316;28;20311;-62
2022/03/13 10:40:58;;;;;;;18.67;9.67;;;;;;;4.95;60.78;102648.75;5109037;28;20375;-62
2022/03/13 10:43:27;;;;;;;12.43;9.75;;;;;;;4.95;60.71;102647.88;5114993;28;20300;-60
2022/03/13 10:45:54;;;;;;;20.57;10.17;;;;;;;5.01;61.28;102655.47;5115247;28;20103;-60
2022/03/13 10:48:29;;;;;;;14.57;8.90;;;;;;;5.03;60.34;102648.34;5115064;28;20304;-61
2022/03/13 10:51:02;;;;;;;18.63;9.20;;;;;;;4.84;59.92;102611.47;5114988;28;20293;-60
2022/03/13 10:53:28;;;;;;;17.23;9.93;;;;;;;5.09;60.61;102661.19;5114923;28;20612;-60
2022/03/13 10:56:09;;;;;;;20.17;9.63;;;;;;;5.18;60.76;102658.06;5114848;27;20740;-60
2022/03/13 10:58:39;;;;;;;17.57;9.60;;;;;;;5.22;60.28;102666.72;5114967;28;20035;-60
2022/03/13 11:01:09;;;;;;;19.47;9.73;;;;;;;5.08;60.51;102648.94;5114954;28;20264;-60
2022/03/13 11:03:37;;;;;;;18.67;8.83;;;;;;;5.14;60.05;102667.09;5114969;28;20276;-61
2022/03/13 11:06:04;;;;;;;17.67;10.33;;;;;;;5.07;60.27;102641.94;5114591;28;20289;-61
2022/03/13 11:08:30;;;;;;;17.03;9.03;;;;;;;5.12;60.48;102642.56;5114677;28;20346;-60
2022/03/13 11:11:00;;;;;;;19.07;9.30;;;;;;;5.07;60.40;102641.94;5114712;28;20776;-64
2022/03/13 11:13:27;;;;;;;13.13;9.90;;;;;;;5.05;60.22;102643.81;5113707;28;20042;-63
2022/03/13 11:15:57;;;;;;;14.63;8.87;;;;;;;4.93;60.67;102634.78;5114516;28;20359;-60
2022/03/13 11:18:28;;;;;;;13.07;9.73;;;;;;;5.02;60.08;102638.69;5114631;28;20254;-61